createdAt,value
2022-11-15T00:00:41.196Z,8.07
2022-11-15T00:03:28.707Z,6.47
2022-11-15T00:06:15.178Z,6.38
2022-11-15T00:09:02.123Z,9.07
2022-11-15T00:11:48.445Z,10.77
2022-11-15T00:14:34.660Z,6.97
2022-11-15T00:17:21.134Z,6.93
2022-11-15T00:20:07.844Z,9.90
2022-11-15T00:22:53.907Z,9.68
2022-11-15T00:25:40.410Z,7.97
2022-11-15T00:28:26.760Z,7.97
2022-11-15T00:31:14.666Z,7.82
2022-11-15T00:34:01.040Z,9.98
2022-11-15T00:36:47.315Z,6.95
2022-11-15T00:39:33.782Z,9.45
2022-11-15T00:42:20.265Z,5.13
2022-11-15T00:45:06.681Z,11.18
2022-11-15T00:47:53.101Z,7.63
2022-11-15T00:50:39.490Z,7.82
2022-11-15T00:53:25.783Z,9.30
2022-11-15T00:56:12.253Z,7.70
2022-11-15T00:58:58.774Z,6.00
2022-11-15T01:01:45.073Z,7.05
2022-11-15T01:04:31.433Z,6.47
2022-11-15T01:07:17.924Z,9.02
2022-11-15T01:10:04.894Z,7.53
2022-11-15T01:12:51.349Z,5.97
2022-11-15T01:15:41.101Z,7.22
2022-11-15T01:18:27.224Z,9.30
2022-11-15T01:21:15.609Z,8.05
2022-11-15T01:24:01.935Z,8.68
2022-11-15T01:26:48.341Z,8.15
2022-11-15T01:29:35.013Z,9.32
2022-11-15T01:32:21.731Z,8.30
2022-11-15T01:35:08.164Z,8.43
2022-11-15T01:37:54.451Z,5.65
2022-11-15T01:40:42.109Z,7.53
2022-11-15T01:43:33.249Z,9.75
2022-11-15T01:49:15.798Z,9.27
2022-11-15T01:52:02.989Z,7.15
2022-11-15T01:54:51.587Z,8.32
2022-11-15T01:57:38.004Z,6.03
2022-11-15T02:00:24.356Z,6.72
2022-11-15T02:03:11.000Z,8.50
2022-11-15T02:05:57.207Z,9.48
2022-11-15T02:08:43.964Z,7.97
2022-11-15T02:11:30.187Z,6.72
2022-11-15T02:14:16.760Z,9.05
2022-11-15T02:17:06.014Z,7.78
2022-11-15T02:19:58.471Z,6.47
2022-11-15T02:22:44.744Z,9.27
2022-11-15T02:25:49.934Z,6.43
2022-11-15T02:28:54.798Z,7.63
2022-11-15T02:31:59.905Z,7.60
2022-11-15T02:34:56.490Z,8.05
2022-11-15T02:37:49.502Z,10.13
2022-11-15T02:40:35.717Z,9.07
2022-11-15T02:44:00.315Z,7.35
2022-11-15T02:47:13.642Z,7.32
2022-11-15T02:50:05.701Z,9.60
2022-11-15T02:52:52.491Z,11.35
2022-11-15T02:55:40.239Z,8.95
2022-11-15T02:58:45.311Z,14.23
2022-11-15T03:01:50.425Z,8.77
2022-11-15T03:04:49.204Z,10.00
2022-11-15T03:07:46.130Z,11.32
2022-11-15T03:10:43.110Z,9.02
2022-11-15T03:13:33.422Z,7.78
2022-11-15T03:16:23.725Z,11.75
2022-11-15T03:19:10.040Z,9.83
2022-11-15T03:21:57.420Z,11.05
2022-11-15T03:24:45.605Z,11.05
2022-11-15T03:27:42.683Z,8.38
2022-11-15T03:30:29.719Z,9.43
2022-11-15T03:33:16.142Z,11.25
2022-11-15T03:36:02.628Z,9.77
2022-11-15T03:38:49.031Z,8.48
2022-11-15T03:41:45.663Z,9.52
2022-11-15T03:44:35.347Z,7.85
2022-11-15T03:47:28.117Z,9.80
2022-11-15T03:50:15.822Z,9.05
2022-11-15T03:53:02.348Z,7.50
2022-11-15T03:55:48.700Z,10.68
2022-11-15T03:58:35.125Z,9.18
2022-11-15T04:01:21.671Z,10.00
2022-11-15T04:04:08.135Z,7.88
2022-11-15T04:06:54.481Z,8.95
2022-11-15T04:09:59.496Z,8.98
2022-11-15T04:12:48.545Z,9.95
2022-11-15T04:15:35.157Z,8.73
2022-11-15T04:18:21.303Z,8.70
2022-11-15T04:21:26.456Z,11.63
2022-11-15T04:24:15.215Z,12.35
2022-11-15T04:27:01.625Z,9.52
2022-11-15T04:29:47.574Z,9.35
2022-11-15T04:32:34.057Z,8.68
2022-11-15T04:35:20.511Z,8.60
2022-11-15T04:38:07.742Z,9.00
2022-11-15T04:40:53.789Z,9.48
2022-11-15T04:43:40.224Z,10.80
2022-11-15T04:46:26.858Z,7.93
2022-11-15T04:49:13.177Z,10.13
2022-11-15T04:51:59.698Z,11.07
2022-11-15T04:54:45.752Z,9.60
2022-11-15T04:57:32.309Z,11.63
2022-11-15T05:00:18.780Z,9.77
2022-11-15T05:03:37.181Z,9.75
2022-11-15T05:06:23.326Z,12.82
2022-11-15T05:09:09.283Z,11.18
2022-11-15T05:11:55.670Z,11.25
2022-11-15T05:14:42.310Z,14.38
2022-11-15T05:17:28.609Z,14.18
2022-11-15T05:20:15.179Z,13.43
2022-11-15T05:23:01.582Z,13.07
2022-11-15T05:25:47.832Z,12.25
2022-11-15T05:28:34.770Z,10.98
2022-11-15T05:31:21.331Z,12.05
2022-11-15T05:34:07.687Z,13.35
2022-11-15T05:36:54.393Z,11.70
2022-11-15T05:39:40.910Z,12.13
2022-11-15T05:42:27.995Z,13.90
2022-11-15T05:45:14.157Z,11.27
2022-11-15T05:48:01.107Z,13.35
2022-11-15T05:50:48.504Z,12.15
2022-11-15T05:53:35.421Z,11.98
2022-11-15T05:56:22.033Z,12.20
2022-11-15T05:59:09.355Z,11.93
2022-11-15T06:01:55.526Z,13.43
2022-11-15T06:04:41.871Z,12.73
2022-11-15T06:07:28.295Z,15.82
2022-11-15T06:10:14.587Z,12.57
2022-11-15T06:13:05.686Z,11.38
2022-11-15T06:15:52.107Z,11.68
2022-11-15T06:18:38.775Z,12.82
2022-11-15T06:21:25.049Z,14.98
2022-11-15T06:24:11.432Z,12.30
2022-11-15T06:26:58.440Z,11.60
2022-11-15T06:29:44.638Z,16.25
2022-11-15T06:32:31.635Z,13.50
2022-11-15T06:35:18.380Z,12.93
2022-11-15T06:38:06.112Z,11.60
2022-11-15T06:40:52.283Z,15.15
2022-11-15T06:43:38.623Z,13.95
2022-11-15T06:46:25.118Z,13.38
2022-11-15T06:49:11.675Z,13.82
2022-11-15T06:51:57.980Z,17.40
2022-11-15T06:54:44.294Z,14.98
2022-11-15T06:57:30.850Z,14.50
2022-11-15T07:00:18.401Z,14.15
2022-11-15T07:03:04.941Z,14.48
2022-11-15T07:06:01.433Z,11.57
2022-11-15T07:08:51.810Z,14.23
2022-11-15T07:11:38.229Z,12.15
2022-11-15T07:14:24.551Z,12.73
2022-11-15T07:17:10.850Z,13.43
2022-11-15T07:19:57.365Z,13.07
2022-11-15T07:22:43.967Z,10.68
2022-11-15T07:25:30.442Z,11.20
2022-11-15T07:28:17.017Z,10.60
2022-11-15T07:31:04.217Z,12.20
2022-11-15T07:33:50.570Z,12.35
2022-11-15T07:36:37.124Z,12.40
2022-11-15T07:39:23.496Z,11.35
2022-11-15T07:42:28.654Z,13.70
2022-11-15T07:45:15.317Z,16.88
2022-11-15T07:48:01.963Z,12.05
2022-11-15T07:50:48.185Z,15.30
2022-11-15T07:53:35.006Z,13.20
2022-11-15T07:56:21.875Z,11.57
2022-11-15T07:59:08.317Z,14.95
2022-11-15T08:01:55.053Z,13.73
2022-11-15T08:04:41.289Z,13.55
2022-11-15T08:07:30.300Z,11.55
2022-11-15T08:10:40.661Z,14.80
2022-11-15T08:13:27.184Z,19.15
2022-11-15T08:16:20.721Z,12.60
2022-11-15T08:22:08.642Z,14.32
2022-11-15T08:24:55.327Z,17.30
2022-11-15T08:27:41.697Z,14.05
2022-11-15T08:30:28.714Z,13.50
2022-11-15T08:33:15.496Z,15.88
2022-11-15T08:36:02.415Z,13.57
2022-11-15T08:38:51.053Z,14.38
2022-11-15T08:41:40.702Z,15.40
2022-11-15T08:47:27.489Z,13.38
2022-11-15T08:50:13.551Z,10.55
2022-11-15T08:52:59.879Z,10.90
2022-11-15T08:55:46.426Z,12.00
2022-11-15T08:58:33.052Z,12.52
2022-11-15T09:01:22.390Z,10.27
2022-11-15T09:04:08.606Z,13.15
2022-11-15T09:06:55.063Z,9.65
2022-11-15T09:09:41.643Z,11.18
2022-11-15T09:12:27.794Z,8.48
2022-11-15T09:15:14.096Z,14.32
2022-11-15T09:18:00.998Z,12.73
2022-11-15T09:20:47.381Z,9.38
2022-11-15T09:23:33.606Z,9.82
2022-11-15T09:26:20.339Z,8.80
2022-11-15T09:29:06.500Z,9.00
2022-11-15T09:31:56.147Z,8.98
2022-11-15T09:34:42.146Z,9.55
2022-11-15T09:37:28.621Z,11.93
2022-11-15T09:40:17.397Z,11.80
2022-11-15T09:43:04.941Z,13.82
2022-11-15T09:45:50.999Z,10.07
2022-11-15T09:48:44.660Z,12.82
2022-11-15T09:51:33.853Z,9.85
2022-11-15T09:57:20.869Z,12.73
2022-11-15T09:59:53.958Z,13.55
2022-11-15T10:02:33.814Z,10.50
2022-11-15T10:05:01.888Z,8.88
2022-11-15T10:07:48.306Z,10.35
2022-11-15T10:10:22.753Z,9.95
2022-11-15T10:12:51.460Z,11.38
2022-11-15T10:15:24.244Z,12.20
2022-11-15T10:18:00.657Z,12.18
2022-11-15T10:20:30.210Z,11.25
2022-11-15T10:23:00.540Z,9.85
2022-11-15T10:25:32.759Z,11.53
2022-11-15T10:28:00.338Z,10.45
2022-11-15T10:30:43.021Z,14.13
2022-11-15T10:33:13.528Z,10.13
2022-11-15T10:35:43.557Z,9.93
2022-11-15T10:38:12.200Z,9.52
2022-11-15T10:40:40.866Z,10.57
2022-11-15T10:43:11.510Z,10.15
2022-11-15T10:45:39.593Z,9.95
2022-11-15T10:48:13.579Z,12.45
2022-11-15T10:50:48.304Z,18.17
2022-11-15T10:53:27.629Z,9.77
2022-11-15T10:55:57.653Z,10.93
2022-11-15T10:58:43.101Z,9.68
2022-11-15T11:01:21.412Z,9.57
2022-11-15T11:04:02.265Z,10.63
2022-11-15T11:06:30.531Z,10.15
2022-11-15T11:09:00.537Z,8.57
2022-11-15T11:11:49.110Z,8.32
2022-11-15T11:14:24.364Z,9.27
2022-11-15T11:16:58.130Z,9.90
2022-11-15T11:19:26.086Z,8.40
2022-11-15T11:22:12.418Z,10.07
2022-11-15T11:24:46.321Z,10.23
2022-11-15T11:27:25.822Z,11.40
2022-11-15T11:30:32.126Z,8.25
2022-11-15T11:33:10.719Z,8.55
2022-11-15T11:35:47.112Z,9.95
2022-11-15T11:38:36.767Z,9.75
2022-11-15T11:41:19.711Z,9.82
2022-11-15T11:43:56.548Z,9.23
2022-11-15T11:46:24.095Z,9.50
2022-11-15T11:48:58.833Z,7.55
2022-11-15T11:51:29.901Z,7.20
2022-11-15T11:56:28.248Z,8.57
2022-11-15T11:58:57.328Z,9.20
2022-11-15T12:01:26.793Z,8.32
2022-11-15T12:04:01.400Z,6.50
2022-11-15T12:06:35.209Z,7.03
2022-11-15T12:09:14.440Z,6.32
2022-11-15T12:11:42.011Z,8.77
2022-11-15T12:14:14.949Z,8.95
2022-11-15T12:16:43.905Z,8.13
2022-11-15T12:19:11.767Z,7.00
2022-11-15T12:21:47.307Z,7.22
2022-11-15T12:24:21.278Z,8.30
2022-11-15T12:26:55.366Z,8.68
2022-11-15T12:29:42.613Z,9.35
2022-11-15T12:32:19.764Z,5.68
2022-11-15T12:34:48.047Z,6.35
2022-11-15T12:37:34.445Z,6.82
2022-11-15T12:40:11.451Z,6.70
2022-11-15T12:43:17.758Z,6.85
2022-11-15T12:45:46.392Z,8.52
2022-11-15T12:48:19.765Z,6.38
2022-11-15T12:50:56.372Z,6.75
2022-11-15T12:53:27.701Z,9.05
2022-11-15T12:56:04.537Z,6.65
2022-11-15T12:58:44.542Z,6.15
2022-11-15T13:01:12.505Z,8.30
2022-11-15T13:04:00.129Z,7.72
2022-11-15T13:06:51.254Z,5.55
2022-11-15T13:11:48.532Z,7.45
2022-11-15T13:14:34.977Z,5.88
2022-11-15T13:17:03.481Z,8.05
2022-11-15T13:19:31.323Z,5.45
2022-11-15T13:22:17.599Z,6.25
2022-11-15T13:24:45.222Z,7.22
2022-11-15T13:27:17.621Z,6.65
2022-11-15T13:29:45.332Z,7.60
2022-11-15T13:32:16.998Z,8.85
2022-11-15T13:34:52.397Z,6.82
2022-11-15T13:37:23.508Z,6.32
2022-11-15T13:39:51.319Z,8.10
2022-11-15T13:42:20.001Z,5.57
2022-11-15T13:44:58.254Z,5.63
2022-11-15T13:47:30.728Z,4.75
2022-11-15T13:49:58.833Z,7.45
2022-11-15T13:52:31.136Z,5.80
2022-11-15T13:55:01.786Z,6.97
2022-11-15T13:57:38.380Z,4.65
2022-11-15T14:00:07.616Z,6.95
2022-11-15T14:02:46.800Z,6.50
2022-11-15T14:05:24.921Z,6.63
2022-11-15T14:07:57.051Z,5.80
2022-11-15T14:10:27.600Z,11.57
2022-11-15T14:12:55.256Z,7.10
2022-11-15T14:15:31.595Z,5.15
2022-11-15T14:17:59.359Z,5.38
2022-11-15T14:20:33.507Z,5.82
2022-11-15T14:25:32.424Z,5.25
2022-11-15T14:30:36.285Z,7.93
2022-11-15T14:33:04.054Z,9.32
2022-11-15T14:35:31.690Z,6.90
2022-11-15T14:38:00.520Z,6.25
2022-11-15T14:40:28.180Z,6.05
2022-11-15T14:42:55.756Z,5.55
2022-11-15T14:45:23.613Z,5.32
2022-11-15T14:47:51.082Z,6.97
2022-11-15T14:50:19.972Z,9.63
2022-11-15T14:52:47.713Z,8.18
2022-11-15T14:55:18.976Z,6.35
2022-11-15T14:57:46.693Z,6.68
2022-11-15T15:00:14.949Z,6.82
2022-11-15T15:02:43.480Z,5.97
2022-11-15T15:05:21.446Z,5.70
2022-11-15T15:07:49.636Z,5.32
2022-11-15T15:10:39.072Z,6.75
2022-11-15T15:13:06.052Z,7.50
2022-11-15T15:15:37.856Z,5.25
2022-11-15T15:18:06.040Z,7.45
2022-11-15T15:20:34.013Z,5.75
2022-11-15T15:23:01.651Z,7.05
2022-11-15T15:25:36.764Z,6.70
2022-11-15T15:28:04.260Z,5.78
2022-11-15T15:30:32.382Z,6.05
2022-11-15T15:32:59.992Z,6.57
2022-11-15T15:35:31.376Z,9.52
2022-11-15T15:37:59.701Z,5.80
2022-11-15T15:40:28.881Z,7.88
2022-11-15T15:42:56.555Z,5.03
2022-11-15T15:45:24.143Z,8.18
2022-11-15T15:47:52.922Z,6.20
2022-11-15T15:50:31.185Z,5.28
2022-11-15T15:53:00.009Z,5.22
2022-11-15T15:55:27.888Z,7.80
2022-11-15T15:57:55.754Z,10.30
2022-11-15T16:00:24.618Z,5.60
2022-11-15T16:02:52.784Z,11.40
2022-11-15T16:05:20.567Z,6.75
2022-11-15T16:07:48.556Z,7.13
2022-11-15T16:10:25.707Z,6.60
2022-11-15T16:12:54.087Z,8.40
2022-11-15T16:15:22.461Z,6.28
2022-11-15T16:17:54.304Z,6.15
2022-11-15T16:20:32.768Z,7.32
2022-11-15T16:23:04.412Z,7.88
2022-11-15T16:25:38.852Z,8.45
2022-11-15T16:28:06.555Z,7.88
2022-11-15T16:30:34.503Z,8.05
2022-11-15T16:33:02.323Z,6.18
2022-11-15T16:35:30.050Z,7.25
2022-11-15T16:37:57.627Z,6.30
2022-11-15T16:40:25.136Z,7.30
2022-11-15T16:43:06.165Z,8.18
2022-11-15T16:45:39.228Z,7.22
2022-11-15T16:48:07.027Z,6.50
2022-11-15T16:53:25.430Z,7.78
2022-11-15T16:58:44.294Z,7.10
2022-11-15T17:01:27.010Z,12.20
2022-11-15T17:04:17.334Z,8.07
2022-11-15T17:06:44.816Z,7.75
2022-11-15T17:14:57.432Z,6.35
2022-11-15T17:17:26.718Z,7.65
2022-11-15T17:25:33.280Z,7.95
2022-11-15T17:30:49.626Z,8.38
2022-11-15T17:33:19.290Z,10.85
2022-11-15T17:36:09.754Z,8.38
2022-11-15T17:38:39.234Z,8.00
2022-11-15T17:44:01.193Z,9.13
2022-11-15T17:49:11.048Z,7.50
2022-11-15T17:59:49.863Z,6.68
2022-11-15T18:02:17.671Z,7.03
2022-11-15T18:04:45.936Z,7.85
2022-11-15T18:09:58.403Z,7.15
2022-11-15T18:12:26.305Z,6.60
2022-11-15T18:17:38.487Z,6.85
2022-11-15T18:20:07.119Z,7.07
2022-11-15T18:22:40.765Z,6.63
2022-11-15T18:25:12.826Z,6.05
2022-11-15T18:30:24.780Z,5.75
2022-11-15T18:36:09.137Z,6.07
2022-11-15T18:38:36.854Z,6.93
2022-11-15T18:41:09.114Z,8.85
2022-11-15T18:43:44.276Z,6.00
2022-11-15T18:46:15.079Z,7.65
2022-11-15T18:51:26.513Z,6.03
2022-11-15T18:57:04.733Z,6.45
2022-11-15T18:59:41.206Z,11.68
2022-11-15T19:02:13.723Z,7.97
2022-11-15T19:04:42.057Z,6.90
2022-11-15T19:12:33.450Z,7.80
2022-11-15T19:17:49.034Z,8.85
2022-11-15T19:20:19.370Z,10.10
2022-11-15T19:22:47.037Z,7.60
2022-11-15T19:25:24.783Z,9.00
2022-11-15T19:30:37.337Z,10.02
2022-11-15T19:33:05.652Z,9.02
2022-11-15T19:38:15.666Z,10.23
2022-11-15T19:40:45.926Z,9.20
2022-11-15T19:43:13.893Z,8.38
2022-11-15T19:45:45.360Z,9.00
2022-11-15T19:55:13.160Z,7.47
2022-11-15T19:57:46.092Z,12.10
2022-11-15T20:00:14.081Z,8.25
2022-11-15T20:02:41.800Z,8.73
2022-11-15T20:05:11.889Z,10.63
2022-11-15T20:07:44.763Z,9.68
2022-11-15T20:10:19.579Z,7.65
2022-11-15T20:12:48.360Z,8.05
2022-11-15T20:15:16.095Z,10.45
2022-11-15T20:17:43.870Z,9.35
2022-11-15T20:20:11.726Z,9.52
2022-11-15T20:25:21.495Z,8.80
2022-11-15T20:27:49.380Z,11.25
2022-11-15T20:30:17.122Z,10.77
2022-11-15T20:32:47.502Z,8.98
2022-11-15T20:35:19.234Z,10.63
2022-11-15T20:41:09.890Z,10.50
2022-11-15T20:43:39.220Z,10.95
2022-11-15T20:46:06.740Z,9.73
2022-11-15T20:48:35.018Z,12.75
2022-11-15T20:51:07.322Z,14.60
2022-11-15T20:53:35.189Z,14.65
2022-11-15T20:56:07.971Z,11.00
2022-11-15T20:58:36.603Z,10.52
2022-11-15T21:01:05.096Z,10.93
2022-11-15T21:03:33.149Z,11.73
2022-11-15T21:06:00.994Z,8.90
2022-11-15T21:08:28.678Z,12.68
2022-11-15T21:11:14.969Z,10.75
2022-11-15T21:13:43.245Z,15.32
2022-11-15T21:16:11.448Z,11.88
2022-11-15T21:18:41.674Z,13.20
2022-11-15T21:21:17.480Z,10.82
2022-11-15T21:23:45.704Z,12.98
2022-11-15T21:26:14.479Z,11.35
2022-11-15T21:28:43.935Z,11.95
2022-11-15T21:31:14.563Z,13.68
2022-11-15T21:33:42.362Z,11.90
2022-11-15T21:36:12.156Z,15.18
2022-11-15T21:38:47.670Z,12.98
2022-11-15T21:41:15.790Z,13.73
2022-11-15T21:43:43.496Z,17.45
2022-11-15T21:46:12.102Z,12.93
2022-11-15T21:48:39.906Z,17.13
2022-11-15T21:51:08.743Z,14.20
2022-11-15T21:53:40.218Z,13.45
2022-11-15T21:56:08.360Z,13.05
2022-11-15T21:58:36.408Z,13.68
2022-11-15T22:01:23.078Z,13.77
2022-11-15T22:03:51.018Z,13.65
2022-11-15T22:06:19.088Z,13.05
2022-11-15T22:08:49.840Z,12.63
2022-11-15T22:11:20.391Z,12.00
2022-11-15T22:13:48.154Z,13.57
2022-11-15T22:16:15.759Z,14.88
2022-11-15T22:18:43.479Z,14.63
2022-11-15T22:21:12.123Z,12.10
2022-11-15T22:23:40.160Z,13.93
2022-11-15T22:26:09.151Z,15.00
2022-11-15T22:28:37.051Z,13.05
2022-11-15T22:31:04.817Z,15.43
2022-11-15T22:33:33.209Z,13.13
2022-11-15T22:36:00.880Z,13.07
2022-11-15T22:38:28.768Z,14.35
2022-11-15T22:40:56.843Z,15.77
2022-11-15T22:43:25.269Z,13.82
2022-11-15T22:45:53.392Z,16.70
2022-11-15T22:48:22.358Z,14.88
2022-11-15T22:50:50.805Z,12.43
2022-11-15T22:53:18.910Z,14.10
2022-11-15T22:55:53.441Z,13.95
2022-11-15T22:58:21.866Z,12.90
2022-11-15T23:00:53.313Z,12.75
2022-11-15T23:03:21.257Z,14.50
2022-11-15T23:05:49.585Z,16.02
2022-11-15T23:08:17.612Z,19.98
2022-11-15T23:11:03.933Z,15.32
2022-11-15T23:13:32.773Z,13.68
2022-11-15T23:16:23.366Z,18.20
2022-11-15T23:18:52.291Z,21.05
2022-11-15T23:21:55.399Z,16.77
2022-11-15T23:24:22.937Z,18.75
2022-11-15T23:26:51.732Z,18.05
2022-11-15T23:29:20.446Z,16.42
2022-11-15T23:32:07.203Z,15.65
2022-11-15T23:34:36.515Z,18.92
2022-11-15T23:37:04.475Z,15.73
2022-11-15T23:39:32.491Z,18.00
2022-11-15T23:42:03.177Z,16.83
2022-11-15T23:44:33.596Z,21.73
2022-11-15T23:47:01.110Z,18.25
2022-11-15T23:49:28.975Z,20.58
2022-11-15T23:51:57.544Z,17.65
2022-11-15T23:54:25.880Z,16.42
2022-11-15T23:56:53.929Z,18.55
2022-11-15T23:59:21.727Z,18.23
